Time;durP1;ratioP1;P1;durP2;ratioP2;P2;SDS_P1;SDS_P2;PMS_P1;PMS_P2;Temp;Humidity;BMP_temperature;BMP_pressure;BME280_temperature;BME280_humidity;BME280_pressure;Samples;Min_cycle;Max_cycle;Signal;HPM_P1;HPM_P2
2021/04/21 00:00:54;;;;;;;8.63;7.70;;;;;;;;;;5076892;28;20482;-75
2021/04/21 00:03:22;;;;;;;9.68;7.85;;;;;;;;;;5076693;28;20948;-75
2021/04/21 00:05:50;;;;;;;8.45;7.60;;;;;;;;;;5076843;28;20252;-75
2021/04/21 00:08:17;;;;;;;12.48;9.40;;;;;;;;;;5076623;28;20202;-74
2021/04/21 00:10:44;;;;;;;10.13;9.10;;;;;;;;;;5076503;28;20673;-75
2021/04/21 00:13:11;;;;;;;13.65;9.13;;;;;;;;;;5076725;28;20288;-75
2021/04/21 00:15:38;;;;;;;12.45;8.75;;;;;;;;;;5076694;28;20243;-75
2021/04/21 00:18:06;;;;;;;11.43;8.55;;;;;;;;;;5077048;28;20221;-75
2021/04/21 00:20:34;;;;;;;9.63;8.70;;;;;;;;;;5076578;28;20255;-75
2021/04/21 00:23:04;;;;;;;17.35;8.30;;;;;;;;;;5076558;28;20453;-74
2021/04/21 00:25:32;;;;;;;10.43;8.82;;;;;;;;;;5076544;28;20190;-74
2021/04/21 00:27:59;;;;;;;9.43;8.52;;;;;;;;;;5076429;28;20195;-74
2021/04/21 00:30:27;;;;;;;9.32;8.32;;;;;;;;;;5076720;28;20201;-74
2021/04/21 00:32:55;;;;;;;11.95;8.75;;;;;;;;;;5076395;28;20200;-75
2021/04/21 00:35:23;;;;;;;10.67;8.40;;;;;;;;;;5076279;28;20206;-74
2021/04/21 00:37:52;;;;;;;11.50;8.20;;;;;;;;;;5076254;28;20483;-74
2021/04/21 00:40:23;;;;;;;9.77;8.00;;;;;;;;;;5075934;28;20720;-74
2021/04/21 00:42:52;;;;;;;10.75;8.40;;;;;;;;;;5075796;28;20442;-74
2021/04/21 00:45:20;;;;;;;10.68;8.95;;;;;;;;;;5076641;28;20202;-74
2021/04/21 00:47:50;;;;;;;9.85;8.52;;;;;;;;;;5075712;28;20658;-75
2021/04/21 00:50:20;;;;;;;16.90;8.90;;;;;;;;;;5076253;28;20694;-76
2021/04/21 00:52:49;;;;;;;10.38;9.13;;;;;;;;;;5076380;28;20194;-74
2021/04/21 00:55:21;;;;;;;10.80;8.98;;;;;;;;;;5076023;28;20310;-75
2021/04/21 00:57:58;;;;;;;11.07;9.95;;;;;;;;;;5076127;28;20335;-74
2021/04/21 01:00:27;;;;;;;11.75;9.23;;;;;;;;;;5076710;28;20534;-74
2021/04/21 01:02:55;;;;;;;10.55;8.55;;;;;;;;;;5075478;28;20728;-75
2021/04/21 01:05:24;;;;;;;11.77;9.73;;;;;;;;;;5075747;28;20205;-74
2021/04/21 01:07:52;;;;;;;10.80;8.82;;;;;;;;;;5075441;28;20709;-74
2021/04/21 01:10:20;;;;;;;14.85;10.45;;;;;;;;;;5075387;28;20198;-74
2021/04/21 01:12:48;;;;;;;12.90;10.20;;;;;;;;;;5076540;28;20287;-74
2021/04/21 01:15:16;;;;;;;16.73;11.77;;;;;;;;;;5075952;28;20192;-74
2021/04/21 01:17:44;;;;;;;15.65;11.35;;;;;;;;;;5075185;28;20282;-74
2021/04/21 01:20:14;;;;;;;11.70;9.63;;;;;;;;;;5075209;28;20198;-74
2021/04/21 01:23:00;;;;;;;12.25;9.90;;;;;;;;;;5075134;28;20197;-74
2021/04/21 01:25:32;;;;;;;13.10;10.25;;;;;;;;;;5075417;28;20315;-74
2021/04/21 01:28:02;;;;;;;12.73;8.85;;;;;;;;;;5075682;28;20281;-74
2021/04/21 01:30:29;;;;;;;15.50;10.90;;;;;;;;;;5075010;28;20698;-74
2021/04/21 01:32:59;;;;;;;12.30;9.60;;;;;;;;;;5074969;28;20745;-74
2021/04/21 01:35:27;;;;;;;11.55;10.32;;;;;;;;;;5075680;28;20200;-74
2021/04/21 01:37:55;;;;;;;13.85;10.65;;;;;;;;;;5075044;28;20197;-75
2021/04/21 01:40:25;;;;;;;12.80;11.18;;;;;;;;;;5075119;28;20284;-74
2021/04/21 01:42:54;;;;;;;13.20;9.68;;;;;;;;;;5075279;28;20202;-73
2021/04/21 01:45:23;;;;;;;16.67;10.60;;;;;;;;;;5075522;28;20526;-74
2021/04/21 01:47:50;;;;;;;11.68;9.80;;;;;;;;;;5074911;28;20199;-72
2021/04/21 01:50:18;;;;;;;13.30;10.73;;;;;;;;;;5073889;28;20235;-75
2021/04/21 01:52:48;;;;;;;14.32;10.27;;;;;;;;;;5074868;28;20192;-74
2021/04/21 01:55:34;;;;;;;15.38;11.75;;;;;;;;;;5074525;28;20189;-74
2021/04/21 01:58:04;;;;;;;14.05;10.50;;;;;;;;;;5074382;28;20249;-74
2021/04/21 02:00:34;;;;;;;11.38;10.20;;;;;;;;;;5074689;28;20196;-74
2021/04/21 02:03:13;;;;;;;11.73;10.50;;;;;;;;;;5074301;28;20192;-74
2021/04/21 02:05:45;;;;;;;11.95;10.70;;;;;;;;;;5074630;28;20235;-73
2021/04/21 02:08:16;;;;;;;16.00;11.18;;;;;;;;;;5074609;28;20194;-73
2021/04/21 02:10:48;;;;;;;10.82;9.73;;;;;;;;;;5074618;28;20202;-74
2021/04/21 02:13:23;;;;;;;15.48;13.02;;;;;;;;;;5074900;28;20188;-74
2021/04/21 02:16:04;;;;;;;12.52;10.40;;;;;;;;;;5074512;28;20538;-74
2021/04/21 02:18:39;;;;;;;12.77;10.93;;;;;;;;;;5061655;28;20229;-77
2021/04/21 02:21:10;;;;;;;15.27;10.60;;;;;;;;;;5074596;28;20196;-77
2021/04/21 02:23:39;;;;;;;13.65;10.88;;;;;;;;;;5074954;28;20268;-77
2021/04/21 02:26:11;;;;;;;14.93;11.52;;;;;;;;;;5073898;28;20210;-75
2021/04/21 02:28:43;;;;;;;15.52;11.10;;;;;;;;;;5073925;28;20222;-75
2021/04/21 02:31:15;;;;;;;14.50;10.75;;;;;;;;;;5074421;28;20622;-76
2021/04/21 02:33:45;;;;;;;17.45;12.07;;;;;;;;;;5074668;28;20554;-76
2021/04/21 02:36:13;;;;;;;20.90;12.00;;;;;;;;;;5074306;28;20294;-76
2021/04/21 02:38:43;;;;;;;23.08;13.60;;;;;;;;;;5074178;28;20227;-77
2021/04/21 02:41:12;;;;;;;20.85;13.55;;;;;;;;;;5078386;28;20194;-77
2021/04/21 02:43:54;;;;;;;16.23;14.43;;;;;;;;;;5093989;28;20222;-77
2021/04/21 02:46:23;;;;;;;17.05;14.00;;;;;;;;;;5090892;28;20649;-76
2021/04/21 02:48:56;;;;;;;26.70;15.40;;;;;;;;;;5079457;28;20306;-75
2021/04/21 02:51:26;;;;;;;20.38;15.00;;;;;;;;;;5074279;28;20274;-75
2021/04/21 02:53:57;;;;;;;25.50;15.75;;;;;;;;;;5075185;28;20194;-75
2021/04/21 02:56:26;;;;;;;17.67;14.50;;;;;;;;;;5075041;28;20188;-75
2021/04/21 02:58:56;;;;;;;18.42;14.40;;;;;;;;;;5074163;28;20247;-75
2021/04/21 03:01:27;;;;;;;21.25;14.80;;;;;;;;;;5073861;28;20247;-75
2021/04/21 03:04:01;;;;;;;15.40;12.13;;;;;;;;;;5073513;28;20187;-75
2021/04/21 03:06:30;;;;;;;17.17;13.15;;;;;;;;;;5073925;28;20193;-75
2021/04/21 03:09:00;;;;;;;21.30;12.20;;;;;;;;;;5073838;28;20299;-75
2021/04/21 03:11:28;;;;;;;16.88;11.30;;;;;;;;;;5074150;28;20206;-75
2021/04/21 03:13:56;;;;;;;13.25;11.77;;;;;;;;;;5073601;28;20612;-75
2021/04/21 03:16:23;;;;;;;20.05;13.30;;;;;;;;;;5073565;28;20191;-75
2021/04/21 03:18:50;;;;;;;17.33;12.88;;;;;;;;;;5073203;28;20223;-76
2021/04/21 03:21:20;;;;;;;14.43;12.02;;;;;;;;;;5073796;28;20205;-75
2021/04/21 03:23:48;;;;;;;16.63;12.57;;;;;;;;;;5073471;28;20191;-75
2021/04/21 03:26:15;;;;;;;16.95;14.50;;;;;;;;;;5074252;28;20192;-74
2021/04/21 03:28:44;;;;;;;19.77;14.00;;;;;;;;;;5073150;28;20209;-75
2021/04/21 03:31:13;;;;;;;18.70;13.18;;;;;;;;;;5073449;28;20198;-73
2021/04/21 03:33:42;;;;;;;18.98;14.63;;;;;;;;;;5073742;28;20287;-73
2021/04/21 03:36:10;;;;;;;16.77;12.77;;;;;;;;;;5073385;28;20207;-73
2021/04/21 03:38:37;;;;;;;14.57;12.85;;;;;;;;;;5073281;28;20222;-73
2021/04/21 03:41:04;;;;;;;14.98;12.57;;;;;;;;;;5073281;28;20198;-74
2021/04/21 03:43:33;;;;;;;14.70;11.52;;;;;;;;;;5073378;28;20588;-73
2021/04/21 03:46:00;;;;;;;16.85;13.57;;;;;;;;;;5073289;28;20554;-73
2021/04/21 03:48:27;;;;;;;14.57;12.50;;;;;;;;;;5072985;28;20195;-73
2021/04/21 03:50:55;;;;;;;14.90;13.30;;;;;;;;;;5073576;28;20191;-74
2021/04/21 03:53:25;;;;;;;17.75;13.48;;;;;;;;;;5073233;28;20200;-74
2021/04/21 03:55:55;;;;;;;17.27;13.07;;;;;;;;;;5072859;28;20218;-74
2021/04/21 03:58:23;;;;;;;21.15;13.15;;;;;;;;;;5073095;28;20583;-74
2021/04/21 04:00:52;;;;;;;15.77;12.18;;;;;;;;;;5073646;28;20195;-74
2021/04/21 04:03:21;;;;;;;15.10;13.50;;;;;;;;;;5073315;28;20196;-76
2021/04/21 04:05:51;;;;;;;18.67;13.80;;;;;;;;;;5073091;28;20196;-75
2021/04/21 04:08:18;;;;;;;14.38;12.85;;;;;;;;;;5073820;28;20225;-75
2021/04/21 04:10:47;;;;;;;16.92;14.15;;;;;;;;;;5073275;28;20269;-75
2021/04/21 04:13:15;;;;;;;16.25;12.82;;;;;;;;;;5074453;28;20205;-74
2021/04/21 04:15:41;;;;;;;19.75;14.02;;;;;;;;;;5076690;28;20285;-74
2021/04/21 04:18:10;;;;;;;14.30;12.80;;;;;;;;;;5076263;28;20220;-75
2021/04/21 04:20:39;;;;;;;16.35;13.82;;;;;;;;;;5076711;28;20604;-75
2021/04/21 04:23:06;;;;;;;17.83;13.82;;;;;;;;;;5076288;28;20666;-75
2021/04/21 04:25:34;;;;;;;17.30;13.50;;;;;;;;;;5077075;28;20231;-75
2021/04/21 04:28:01;;;;;;;17.27;15.18;;;;;;;;;;5076440;28;20224;-74
2021/04/21 04:30:29;;;;;;;16.45;13.50;;;;;;;;;;5076463;28;20256;-71
2021/04/21 04:32:58;;;;;;;14.98;12.40;;;;;;;;;;5076411;28;20190;-71
2021/04/21 04:35:25;;;;;;;15.10;13.02;;;;;;;;;;5076034;28;20648;-72
2021/04/21 04:37:57;;;;;;;18.08;13.63;;;;;;;;;;5075991;28;20194;-73
2021/04/21 04:40:23;;;;;;;15.52;13.13;;;;;;;;;;5077099;28;20280;-73
2021/04/21 04:42:50;;;;;;;14.95;12.75;;;;;;;;;;5075907;28;20274;-72
2021/04/21 04:45:18;;;;;;;19.05;14.07;;;;;;;;;;5075875;28;20683;-73
2021/04/21 04:47:46;;;;;;;17.17;12.95;;;;;;;;;;5076186;28;20214;-71
2021/04/21 04:50:13;;;;;;;18.83;13.23;;;;;;;;;;5075777;28;20231;-72
2021/04/21 04:52:41;;;;;;;15.70;13.70;;;;;;;;;;5076043;28;20192;-71
2021/04/21 04:55:09;;;;;;;15.48;13.63;;;;;;;;;;5075676;28;20202;-70
2021/04/21 04:57:35;;;;;;;17.30;13.23;;;;;;;;;;5075652;28;20198;-71
2021/04/21 05:00:05;;;;;;;22.10;14.88;;;;;;;;;;5075883;28;20223;-72
2021/04/21 05:02:34;;;;;;;19.08;12.98;;;;;;;;;;5072920;28;20196;-70
2021/04/21 05:05:04;;;;;;;15.88;13.95;;;;;;;;;;5063390;28;20656;-72
2021/04/21 05:07:34;;;;;;;17.63;13.52;;;;;;;;;;5055753;28;20653;-72
2021/04/21 05:10:04;;;;;;;16.92;14.85;;;;;;;;;;5056188;28;20556;-72
2021/04/21 05:12:31;;;;;;;17.52;14.57;;;;;;;;;;5055586;28;20606;-72
2021/04/21 05:14:58;;;;;;;23.98;14.73;;;;;;;;;;5055549;28;20195;-72
2021/04/21 05:17:58;;;;;;;19.83;13.43;;;;;;;;;;5055438;28;20253;-72
2021/04/21 05:20:43;;;;;;;19.40;14.10;;;;;;;;;;5055743;28;20222;-73
2021/04/21 05:23:24;;;;;;;21.75;14.38;;;;;;;;;;5055303;28;20335;-73
2021/04/21 05:26:10;;;;;;;18.50;14.20;;;;;;;;;;5041395;28;20201;-71
2021/04/21 05:28:51;;;;;;;18.02;14.00;;;;;;;;;;5063697;28;20199;-72
2021/04/21 05:31:36;;;;;;;17.60;14.27;;;;;;;;;;5055431;28;20643;-71
2021/04/21 05:34:30;;;;;;;16.75;13.32;;;;;;;;;;5072765;28;20201;-71
2021/04/21 05:37:14;;;;;;;17.25;14.10;;;;;;;;;;5075368;28;20217;-71
2021/04/21 05:39:59;;;;;;;19.95;15.13;;;;;;;;;;5075209;28;20239;-73
2021/04/21 05:42:46;;;;;;;16.30;13.05;;;;;;;;;;5074941;28;20198;-71
2021/04/21 05:45:39;;;;;;;19.92;14.68;;;;;;;;;;5075239;28;20599;-72
2021/04/21 05:48:24;;;;;;;16.45;13.95;;;;;;;;;;5075143;28;20182;-71
2021/04/21 05:51:11;;;;;;;16.58;13.35;;;;;;;;;;5074592;28;20203;-72
2021/04/21 05:53:56;;;;;;;20.23;15.20;;;;;;;;;;5074626;28;20183;-72
2021/04/21 05:56:35;;;;;;;18.52;13.50;;;;;;;;;;5074691;28;20198;-71
2021/04/21 05:59:14;;;;;;;16.58;13.00;;;;;;;;;;5075122;28;20203;-71
2021/04/21 06:01:43;;;;;;;15.82;13.43;;;;;;;;;;5075335;28;20191;-71
2021/04/21 06:04:10;;;;;;;16.38;12.77;;;;;;;;;;5074265;28;20209;-71
2021/04/21 06:06:37;;;;;;;15.50;13.85;;;;;;;;;;5074415;28;20287;-71
2021/04/21 06:09:06;;;;;;;17.52;14.55;;;;;;;;;;5074855;28;20203;-72
2021/04/21 06:11:33;;;;;;;18.65;13.80;;;;;;;;;;5074454;28;20193;-72
2021/04/21 06:14:01;;;;;;;16.58;12.48;;;;;;;;;;5074040;28;20232;-71
2021/04/21 06:16:29;;;;;;;18.80;12.70;;;;;;;;;;5074327;28;20292;-67
2021/04/21 06:18:57;;;;;;;18.30;13.20;;;;;;;;;;5074236;28;20273;-67
2021/04/21 06:21:25;;;;;;;17.55;12.88;;;;;;;;;;5074150;28;20202;-67
2021/04/21 06:23:53;;;;;;;20.08;11.57;;;;;;;;;;5074680;28;20196;-67
2021/04/21 06:26:21;;;;;;;16.65;12.98;;;;;;;;;;5073970;28;20555;-67
2021/04/21 06:29:07;;;;;;;19.10;11.68;;;;;;;;;;5073662;28;20208;-68
2021/04/21 06:31:35;;;;;;;18.77;12.00;;;;;;;;;;5074106;28;20223;-67
2021/04/21 06:34:03;;;;;;;15.32;12.00;;;;;;;;;;5073615;28;20192;-67
2021/04/21 06:36:35;;;;;;;18.63;13.45;;;;;;;;;;5074341;28;20223;-68
2021/04/21 06:39:02;;;;;;;14.88;12.50;;;;;;;;;;5074316;28;20612;-68
2021/04/21 06:41:29;;;;;;;19.10;13.57;;;;;;;;;;5073744;28;20322;-67
2021/04/21 06:43:56;;;;;;;23.02;12.13;;;;;;;;;;5074230;28;20281;-67
2021/04/21 06:46:23;;;;;;;20.25;12.52;;;;;;;;;;5074576;28;20607;-67
2021/04/21 06:48:53;;;;;;;18.92;13.57;;;;;;;;;;5073191;28;20315;-67
2021/04/21 06:51:22;;;;;;;16.45;12.02;;;;;;;;;;5073894;28;20198;-67
2021/04/21 06:53:49;;;;;;;17.05;12.82;;;;;;;;;;5073410;28;20202;-67
2021/04/21 06:56:16;;;;;;;16.15;12.55;;;;;;;;;;5073743;28;20589;-67
2021/04/21 06:58:43;;;;;;;15.10;12.00;;;;;;;;;;5073543;28;20286;-67
2021/04/21 07:01:11;;;;;;;18.88;12.25;;;;;;;;;;5073343;28;20196;-67
2021/04/21 07:03:37;;;;;;;22.35;14.27;;;;;;;;;;5073218;28;20244;-68
2021/04/21 07:06:05;;;;;;;18.52;12.65;;;;;;;;;;5074429;28;20201;-67
2021/04/21 07:08:33;;;;;;;16.17;12.32;;;;;;;;;;5073271;28;20677;-67
2021/04/21 07:11:01;;;;;;;15.20;11.27;;;;;;;;;;5073216;28;20199;-67
2021/04/21 07:13:30;;;;;;;17.30;12.43;;;;;;;;;;5073232;28;20474;-68
2021/04/21 07:15:57;;;;;;;17.05;11.38;;;;;;;;;;5073859;28;20258;-67
2021/04/21 07:18:25;;;;;;;13.75;11.63;;;;;;;;;;5073089;28;20292;-67
2021/04/21 07:20:52;;;;;;;22.00;15.87;;;;;;;;;;5073922;28;20277;-67
2021/04/21 07:23:20;;;;;;;17.88;12.25;;;;;;;;;;5073437;28;20443;-67
2021/04/21 07:25:48;;;;;;;15.53;11.33;;;;;;;;;;5073420;28;20567;-68
2021/04/21 07:28:16;;;;;;;15.88;10.20;;;;;;;;;;5073169;28;20526;-72
2021/04/21 07:30:43;;;;;;;13.00;11.53;;;;;;;;;;5073231;28;20226;-67
2021/04/21 07:33:10;;;;;;;16.60;10.60;;;;;;;;;;5073480;28;20471;-67
2021/04/21 07:35:37;;;;;;;19.50;11.20;;;;;;;;;;5073915;28;20452;-67
2021/04/21 07:38:16;;;;;;;14.43;10.60;;;;;;;;;;5073444;28;20866;-67
2021/04/21 07:40:43;;;;;;;19.93;9.53;;;;;;;;;;5074364;28;20507;-66
2021/04/21 07:43:15;;;;;;;10.63;8.97;;;;;;;;;;5074995;28;20535;-68
2021/04/21 07:45:44;;;;;;;13.20;10.20;;;;;;;;;;5074385;28;20433;-66
2021/04/21 07:48:29;;;;;;;18.90;9.73;;;;;;;;;;5074372;28;20440;-67
2021/04/21 07:50:56;;;;;;;10.33;8.63;;;;;;;;;;5077531;28;20425;-68
2021/04/21 07:53:23;;;;;;;11.70;10.27;;;;;;;;;;5077522;28;20938;-66
2021/04/21 07:55:49;;;;;;;14.93;9.97;;;;;;;;;;5077444;28;20471;-66
2021/04/21 07:58:23;;;;;;;11.17;8.87;;;;;;;;;;5077104;28;20793;-66
2021/04/21 08:00:50;;;;;;;11.00;8.57;;;;;;;;;;5076805;28;20510;-66
2021/04/21 08:03:23;;;;;;;11.50;8.43;;;;;;;;;;5076914;28;20480;-66
2021/04/21 08:05:53;;;;;;;15.70;8.73;;;;;;;;;;5077367;28;20740;-67
2021/04/21 08:08:27;;;;;;;10.43;7.83;;;;;;;;;;5076736;28;20440;-66
2021/04/21 08:10:54;;;;;;;9.20;8.40;;;;;;;;;;5076793;28;20499;-66
2021/04/21 08:13:35;;;;;;;9.23;7.50;;;;;;;;;;5077314;28;20454;-66
2021/04/21 08:16:03;;;;;;;9.93;7.20;;;;;;;;;;5075974;28;20533;-66
2021/04/21 08:18:32;;;;;;;10.60;7.37;;;;;;;;;;5076237;28;20475;-66
2021/04/21 08:20:59;;;;;;;9.60;7.50;;;;;;;;;;5076612;28;20577;-66
2021/04/21 08:23:26;;;;;;;10.33;7.67;;;;;;;;;;5076362;28;20440;-67
2021/04/21 08:25:53;;;;;;;10.40;7.90;;;;;;;;;;5077520;28;20857;-66
2021/04/21 08:28:22;;;;;;;8.93;7.40;;;;;;;;;;5076630;28;20444;-67
2021/04/21 08:30:55;;;;;;;13.57;8.17;;;;;;;;;;5077162;28;20444;-66
2021/04/21 08:33:23;;;;;;;9.33;8.20;;;;;;;;;;5077022;28;20448;-67
2021/04/21 08:35:49;;;;;;;10.70;6.73;;;;;;;;;;5076767;28;20807;-66
2021/04/21 08:38:16;;;;;;;8.10;6.77;;;;;;;;;;5076001;28;20444;-67
2021/04/21 08:40:43;;;;;;;10.40;7.50;;;;;;;;;;5076188;28;20488;-67
2021/04/21 08:43:10;;;;;;;12.40;7.33;;;;;;;;;;5075602;28;20447;-66
2021/04/21 08:45:37;;;;;;;9.37;7.50;;;;;;;;;;5075511;28;20506;-67
2021/04/21 08:48:05;;;;;;;9.57;6.70;;;;;;;;;;5076427;28;20476;-67
2021/04/21 08:50:36;;;;;;;10.10;6.50;;;;;;;;;;5075722;28;20508;-67
2021/04/21 08:53:05;;;;;;;7.40;6.67;;;;;;;;;;5076382;28;20444;-67
2021/04/21 08:55:33;;;;;;;8.40;6.60;;;;;;;;;;5075736;28;20440;-67
2021/04/21 08:58:00;;;;;;;12.53;7.27;;;;;;;;;;5075890;28;20519;-67
2021/04/21 09:00:27;;;;;;;10.40;7.30;;;;;;;;;;5074388;28;20557;-66
2021/04/21 09:02:54;;;;;;;6.77;5.60;;;;;;;;;;5075658;28;20464;-67
2021/04/21 09:05:22;;;;;;;11.93;6.30;;;;;;;;;;5075897;28;20443;-67
2021/04/21 09:07:49;;;;;;;10.77;6.60;;;;;;;;;;5075446;28;20998;-66
2021/04/21 09:10:18;;;;;;;9.83;6.40;;;;;;;;;;5075694;28;20497;-67
2021/04/21 09:12:46;;;;;;;9.50;6.53;;;;;;;;;;5075870;28;20540;-68
2021/04/21 09:15:13;;;;;;;8.63;7.23;;;;;;;;;;5075056;28;20587;-68
2021/04/21 09:17:43;;;;;;;9.70;6.00;;;;;;;;;;5075186;28;21080;-66
2021/04/21 09:20:13;;;;;;;5.57;5.07;;;;;;;;;;5075322;28;20530;-67
2021/04/21 09:22:54;;;;;;;6.93;6.23;;;;;;;;;;5075156;28;20804;-67
2021/04/21 09:25:22;;;;;;;7.03;6.33;;;;;;;;;;5074787;28;20532;-67
2021/04/21 09:27:55;;;;;;;10.40;6.70;;;;;;;;;;5074779;28;20929;-67
2021/04/21 09:30:22;;;;;;;10.87;6.63;;;;;;;;;;5074955;28;20890;-67
2021/04/21 09:32:50;;;;;;;9.90;7.30;;;;;;;;;;5075221;28;20495;-67
2021/04/21 09:35:19;;;;;;;9.23;8.10;;;;;;;;;;5075333;28;20539;-66
2021/04/21 09:37:46;;;;;;;9.07;8.07;;;;;;;;;;5075102;28;20440;-66
2021/04/21 09:40:13;;;;;;;9.77;7.97;;;;;;;;;;5074911;28;20571;-67
2021/04/21 09:42:41;;;;;;;9.50;8.30;;;;;;;;;;5075016;28;20463;-66
2021/04/21 09:45:08;;;;;;;8.83;7.30;;;;;;;;;;5074947;28;20515;-66
2021/04/21 09:47:35;;;;;;;11.17;8.80;;;;;;;;;;5074467;28;20436;-67
2021/04/21 09:50:02;;;;;;;13.77;9.10;;;;;;;;;;5075100;28;20879;-67
2021/04/21 09:52:29;;;;;;;11.50;8.40;;;;;;;;;;5074457;28;20476;-66
2021/04/21 09:54:57;;;;;;;10.80;9.70;;;;;;;;;;5075041;28;20997;-67
2021/04/21 09:57:26;;;;;;;9.00;7.97;;;;;;;;;;5074405;28;20437;-67
2021/04/21 09:59:58;;;;;;;11.13;9.23;;;;;;;;;;5074221;28;20468;-67
2021/04/21 10:02:32;;;;;;;15.30;9.50;;;;;;;;;;5074124;28;20442;-67
2021/04/21 10:04:58;;;;;;;16.93;10.57;;;;;;;;;;5074207;28;20437;-67
2021/04/21 10:07:25;;;;;;;11.97;9.30;;;;;;;;;;5074449;28;20476;-67
2021/04/21 10:09:57;;;;;;;11.63;9.57;;;;;;;;;;5074374;28;20498;-67
2021/04/21 10:12:25;;;;;;;12.27;9.57;;;;;;;;;;5073626;28;20573;-67
2021/04/21 10:15:06;;;;;;;16.30;9.30;;;;;;;;;;5073947;28;20438;-67
2021/04/21 10:17:35;;;;;;;12.80;9.80;;;;;;;;;;5074156;28;20420;-67
2021/04/21 10:20:02;;;;;;;10.37;9.30;;;;;;;;;;5074070;28;20634;-67
2021/04/21 10:22:29;;;;;;;11.13;8.50;;;;;;;;;;5073757;28;20918;-67
2021/04/21 10:24:56;;;;;;;14.50;9.37;;;;;;;;;;5074112;28;20463;-67
2021/04/21 10:27:23;;;;;;;16.13;10.90;;;;;;;;;;5074152;28;20444;-67
2021/04/21 10:29:50;;;;;;;12.63;9.20;;;;;;;;;;5074334;28;20440;-66
2021/04/21 10:32:18;;;;;;;14.20;10.73;;;;;;;;;;5073675;28;20862;-68
2021/04/21 10:34:45;;;;;;;11.90;9.73;;;;;;;;;;5073712;28;20432;-68
2021/04/21 10:37:12;;;;;;;10.30;8.50;;;;;;;;;;5073666;28;20466;-67
2021/04/21 10:39:40;;;;;;;9.70;7.70;;;;;;;;;;5073417;28;20499;-67
2021/04/21 10:42:08;;;;;;;9.03;5.97;;;;;;;;;;5073375;28;20505;-66
2021/04/21 10:44:35;;;;;;;8.90;6.23;;;;;;;;;;5073514;28;20440;-67
2021/04/21 10:47:04;;;;;;;11.43;7.07;;;;;;;;;;5073285;28;20444;-67
2021/04/21 10:49:35;;;;;;;9.03;7.27;;;;;;;;;;5073426;28;20470;-68
2021/04/21 10:52:12;;;;;;;17.37;9.23;;;;;;;;;;5073687;28;20448;-67
2021/04/21 10:54:38;;;;;;;12.50;8.90;;;;;;;;;;5073542;28;20902;-67
2021/04/21 10:57:25;;;;;;;9.70;8.30;;;;;;;;;;5073362;28;20511;-73
2021/04/21 11:00:22;;;;;;;11.93;8.57;;;;;;;;;;5073704;28;20500;-68
2021/04/21 11:02:59;;;;;;;13.90;10.60;;;;;;;;;;5073521;28;20453;-68
2021/04/21 11:05:33;;;;;;;13.20;9.33;;;;;;;;;;5073367;28;20948;-68
2021/04/21 11:08:03;;;;;;;11.67;9.90;;;;;;;;;;5073730;28;20425;-68
2021/04/21 11:10:38;;;;;;;12.20;9.80;;;;;;;;;;5073735;28;20513;-69
2021/04/21 11:13:06;;;;;;;15.27;9.87;;;;;;;;;;5073831;28;20922;-68
2021/04/21 11:15:43;;;;;;;15.87;10.17;;;;;;;;;;5073057;28;20452;-68
2021/04/21 11:18:13;;;;;;;13.83;10.70;;;;;;;;;;5073245;28;20460;-68
2021/04/21 11:20:55;;;;;;;11.97;9.70;;;;;;;;;;5073637;28;20555;-68
2021/04/21 11:23:40;;;;;;;11.97;8.87;;;;;;;;;;5072226;28;20915;-69
2021/04/21 11:26:25;;;;;;;14.60;9.20;;;;;;;;;;5073359;28;20525;-68
2021/04/21 11:28:55;;;;;;;14.53;9.63;;;;;;;;;;5073340;28;20943;-69
2021/04/21 11:31:23;;;;;;;12.47;10.70;;;;;;;;;;5072634;28;20445;-68
2021/04/21 11:33:49;;;;;;;14.20;10.20;;;;;;;;;;5073262;28;20447;-68
2021/04/21 11:36:35;;;;;;;13.33;9.37;;;;;;;;;;5072913;28;20439;-68
2021/04/21 11:39:03;;;;;;;12.63;10.63;;;;;;;;;;5072313;28;20481;-68
2021/04/21 11:41:39;;;;;;;11.30;9.03;;;;;;;;;;5072847;28;20480;-67
2021/04/21 11:44:06;;;;;;;14.57;9.00;;;;;;;;;;5073269;28;20782;-69
2021/04/21 11:46:56;;;;;;;12.40;8.83;;;;;;;;;;5073245;28;20438;-68
2021/04/21 11:49:47;;;;;;;13.87;9.73;;;;;;;;;;5062853;28;20485;-68
2021/04/21 11:52:39;;;;;;;11.47;8.57;;;;;;;;;;5072797;28;20527;-68
2021/04/21 11:55:08;;;;;;;10.87;7.93;;;;;;;;;;5073949;28;20528;-68
2021/04/21 11:57:35;;;;;;;9.50;8.50;;;;;;;;;;5072709;28;20930;-68
2021/04/21 12:00:02;;;;;;;9.13;8.20;;;;;;;;;;5073150;28;20496;-68
2021/04/21 12:02:29;;;;;;;10.07;8.97;;;;;;;;;;5072565;28;20437;-68
2021/04/21 12:04:55;;;;;;;12.70;9.70;;;;;;;;;;5072689;28;20451;-68
2021/04/21 12:07:22;;;;;;;11.10;9.80;;;;;;;;;;5072579;28;20444;-69
2021/04/21 12:09:49;;;;;;;11.67;10.43;;;;;;;;;;5072956;28;20441;-68
2021/04/21 12:12:24;;;;;;;9.90;8.90;;;;;;;;;;5072655;28;20541;-68
2021/04/21 12:15:02;;;;;;;12.47;10.97;;;;;;;;;;5072945;28;20436;-68
2021/04/21 12:17:29;;;;;;;11.27;10.07;;;;;;;;;;5073472;28;20427;-68
2021/04/21 12:19:58;;;;;;;14.17;10.13;;;;;;;;;;5072838;28;20867;-68
2021/04/21 12:22:38;;;;;;;14.53;10.17;;;;;;;;;;5072865;28;20463;-68
2021/04/21 12:25:05;;;;;;;16.00;10.50;;;;;;;;;;5072956;28;20500;-67
2021/04/21 12:27:34;;;;;;;11.93;10.70;;;;;;;;;;5072718;28;20523;-68
2021/04/21 12:30:08;;;;;;;14.43;10.13;;;;;;;;;;5072352;28;20459;-68
2021/04/21 12:32:35;;;;;;;12.17;8.80;;;;;;;;;;5073400;28;20478;-68
2021/04/21 12:35:03;;;;;;;10.60;9.23;;;;;;;;;;5074547;28;20527;-68
2021/04/21 12:37:30;;;;;;;12.23;9.20;;;;;;;;;;5075792;28;20479;-68
2021/04/21 12:39:57;;;;;;;12.33;9.73;;;;;;;;;;5075789;28;20566;-68
2021/04/21 12:42:23;;;;;;;15.67;9.47;;;;;;;;;;5076248;28;20453;-69
2021/04/21 12:44:51;;;;;;;12.60;8.70;;;;;;;;;;5076257;28;20468;-69
2021/04/21 12:47:18;;;;;;;10.77;8.80;;;;;;;;;;5077683;28;20464;-68
2021/04/21 12:49:47;;;;;;;9.60;8.50;;;;;;;;;;5077993;28;20973;-68
2021/04/21 12:52:15;;;;;;;11.00;9.73;;;;;;;;;;5077574;28;20898;-69
2021/04/21 12:54:43;;;;;;;12.83;9.67;;;;;;;;;;5076239;28;20440;-70
2021/04/21 12:57:10;;;;;;;8.57;7.60;;;;;;;;;;5075946;28;20445;-69
2021/04/21 12:59:41;;;;;;;10.83;8.90;;;;;;;;;;5076531;28;20571;-69
2021/04/21 13:02:12;;;;;;;11.77;8.90;;;;;;;;;;5077029;28;20441;-69
2021/04/21 13:04:39;;;;;;;9.47;8.57;;;;;;;;;;5076018;28;20503;-69
2021/04/21 13:07:13;;;;;;;9.80;8.70;;;;;;;;;;5075580;28;20477;-69
2021/04/21 13:09:40;;;;;;;12.00;10.37;;;;;;;;;;5075934;28;20448;-68
2021/04/21 13:12:10;;;;;;;10.63;8.20;;;;;;;;;;5076205;28;20444;-69
2021/04/21 13:14:38;;;;;;;16.73;10.60;;;;;;;;;;5075138;28;20611;-68
2021/04/21 13:17:05;;;;;;;12.83;11.53;;;;;;;;;;5075783;28;20524;-68
2021/04/21 13:19:33;;;;;;;15.00;12.27;;;;;;;;;;5075422;28;20629;-69
2021/04/21 13:22:05;;;;;;;14.60;12.03;;;;;;;;;;5074932;28;20918;-70
2021/04/21 13:24:38;;;;;;;19.80;13.77;;;;;;;;;;5075348;28;20444;-68
2021/04/21 13:27:05;;;;;;;17.67;13.67;;;;;;;;;;5075859;28;20916;-69
2021/04/21 13:29:33;;;;;;;14.90;12.30;;;;;;;;;;5075331;28;20437;-69
2021/04/21 13:32:07;;;;;;;14.43;12.30;;;;;;;;;;5075226;28;20484;-75
2021/04/21 13:34:35;;;;;;;17.13;13.00;;;;;;;;;;5075679;28;20846;-72
2021/04/21 13:37:02;;;;;;;13.03;11.63;;;;;;;;;;5074835;28;20472;-71
2021/04/21 13:39:28;;;;;;;14.47;12.53;;;;;;;;;;5074902;28;20913;-71
2021/04/21 13:41:55;;;;;;;17.07;12.43;;;;;;;;;;5075636;28;20977;-71
2021/04/21 13:44:22;;;;;;;16.60;11.90;;;;;;;;;;5074556;28;20928;-71
2021/04/21 13:46:49;;;;;;;18.23;12.93;;;;;;;;;;5074098;28;20810;-71
2021/04/21 13:49:17;;;;;;;18.80;13.83;;;;;;;;;;5074684;28;20487;-70
2021/04/21 13:51:44;;;;;;;23.23;15.30;;;;;;;;;;5074789;28;20443;-70
2021/04/21 13:54:11;;;;;;;15.27;12.73;;;;;;;;;;5074247;28;20436;-72
2021/04/21 13:56:38;;;;;;;21.50;14.53;;;;;;;;;;5065650;28;20811;-70
2021/04/21 13:59:05;;;;;;;19.53;15.47;;;;;;;;;;5060478;28;20454;-71
2021/04/21 14:01:32;;;;;;;19.63;15.40;;;;;;;;;;5054695;28;20468;-71
2021/04/21 14:03:59;;;;;;;24.00;16.77;;;;;;;;;;5054034;28;20444;-69
2021/04/21 14:06:26;;;;;;;19.60;15.70;;;;;;;;;;5054539;28;20433;-70
2021/04/21 14:08:56;;;;;;;20.20;15.13;;;;;;;;;;5053993;28;20529;-71
2021/04/21 14:11:23;;;;;;;22.37;16.10;;;;;;;;;;5054371;28;20524;-70
2021/04/21 14:13:50;;;;;;;27.60;17.73;;;;;;;;;;5054570;28;20827;-71
2021/04/21 14:16:17;;;;;;;18.73;15.47;;;;;;;;;;5054599;28;20434;-71
2021/04/21 14:18:44;;;;;;;17.47;14.43;;;;;;;;;;5054096;28;20929;-72
2021/04/21 14:21:10;;;;;;;17.80;14.03;;;;;;;;;;5054269;28;20470;-71
2021/04/21 14:23:37;;;;;;;21.93;13.37;;;;;;;;;;5053946;28;20453;-70
2021/04/21 14:26:05;;;;;;;18.73;13.57;;;;;;;;;;5053712;28;20469;-70
2021/04/21 14:28:32;;;;;;;16.83;12.30;;;;;;;;;;5053688;28;20434;-69
2021/04/21 14:30:59;;;;;;;14.00;12.60;;;;;;;;;;5053842;28;20492;-69
2021/04/21 14:33:25;;;;;;;14.17;12.50;;;;;;;;;;5054323;28;20446;-70
2021/04/21 14:35:52;;;;;;;15.23;11.30;;;;;;;;;;5054438;28;20499;-70
2021/04/21 14:38:21;;;;;;;13.67;12.30;;;;;;;;;;5054246;28;20445;-71
2021/04/21 14:40:48;;;;;;;11.10;9.67;;;;;;;;;;5053286;28;20480;-68